sensor_id;sensor_type;location;lat;lon;timestamp;temperature;humidity
30148;DHT22;16960;49.404;8.248;2022-10-26T00:02:12;20.60;55.90
30148;DHT22;16960;49.404;8.248;2022-10-26T00:04:39;20.60;55.90
30148;DHT22;16960;49.404;8.248;2022-10-26T00:07:06;20.50;55.90
30148;DHT22;16960;49.404;8.248;2022-10-26T00:09:33;20.50;55.90
30148;DHT22;16960;49.404;8.248;2022-10-26T00:12:00;20.60;55.90
30148;DHT22;16960;49.404;8.248;2022-10-26T00:14:27;20.50;55.90
30148;DHT22;16960;49.404;8.248;2022-10-26T00:16:54;20.50;55.90
30148;DHT22;16960;49.404;8.248;2022-10-26T00:19:23;20.50;55.90
30148;DHT22;16960;49.404;8.248;2022-10-26T00:21:50;20.50;55.90
30148;DHT22;16960;49.404;8.248;2022-10-26T00:24:17;20.50;55.90
30148;DHT22;16960;49.404;8.248;2022-10-26T00:26:44;20.50;55.90
30148;DHT22;16960;49.404;8.248;2022-10-26T00:29:12;20.50;55.90
30148;DHT22;16960;49.404;8.248;2022-10-26T00:31:39;20.50;55.90
30148;DHT22;16960;49.404;8.248;2022-10-26T00:34:08;20.50;56.00
30148;DHT22;16960;49.404;8.248;2022-10-26T00:36:36;20.50;56.00
30148;DHT22;16960;49.404;8.248;2022-10-26T00:39:03;20.50;56.20
30148;DHT22;16960;49.404;8.248;2022-10-26T00:41:32;20.50;56.70
30148;DHT22;16960;49.404;8.248;2022-10-26T00:44:00;20.50;56.00
30148;DHT22;16960;49.404;8.248;2022-10-26T00:46:29;20.50;56.80
30148;DHT22;16960;49.404;8.248;2022-10-26T00:48:59;20.50;56.10
30148;DHT22;16960;49.404;8.248;2022-10-26T00:51:30;20.50;56.00
30148;DHT22;16960;49.404;8.248;2022-10-26T00:54:01;20.50;56.00
30148;DHT22;16960;49.404;8.248;2022-10-26T00:56:29;20.40;55.80
30148;DHT22;16960;49.404;8.248;2022-10-26T00:59:00;20.50;55.90
30148;DHT22;16960;49.404;8.248;2022-10-26T01:01:28;20.50;55.90
30148;DHT22;16960;49.404;8.248;2022-10-26T01:03:56;20.50;55.90
30148;DHT22;16960;49.404;8.248;2022-10-26T01:06:24;20.40;55.90
30148;DHT22;16960;49.404;8.248;2022-10-26T01:08:51;20.40;56.50
30148;DHT22;16960;49.404;8.248;2022-10-26T01:11:19;20.50;55.90
30148;DHT22;16960;49.404;8.248;2022-10-26T01:13:47;20.50;55.90
30148;DHT22;16960;49.404;8.248;2022-10-26T01:16:33;20.50;55.90
30148;DHT22;16960;49.404;8.248;2022-10-26T01:19:24;20.50;55.90
30148;DHT22;16960;49.404;8.248;2022-10-26T01:21:59;20.50;55.90
30148;DHT22;16960;49.404;8.248;2022-10-26T01:27:37;20.40;55.90
30148;DHT22;16960;49.404;8.248;2022-10-26T01:30:16;20.40;55.90
30148;DHT22;16960;49.404;8.248;2022-10-26T01:32:48;20.40;55.90
30148;DHT22;16960;49.404;8.248;2022-10-26T01:35:22;20.40;55.90
30148;DHT22;16960;49.404;8.248;2022-10-26T01:37:56;20.40;55.90
30148;DHT22;16960;49.404;8.248;2022-10-26T01:40:28;20.40;55.90
30148;DHT22;16960;49.404;8.248;2022-10-26T01:42:58;20.40;55.90
30148;DHT22;16960;49.404;8.248;2022-10-26T01:45:30;20.40;55.90
30148;DHT22;16960;49.404;8.248;2022-10-26T01:47:58;20.40;55.90
30148;DHT22;16960;49.404;8.248;2022-10-26T01:50:26;20.40;55.90
30148;DHT22;16960;49.404;8.248;2022-10-26T01:52:53;20.40;56.00
30148;DHT22;16960;49.404;8.248;2022-10-26T01:55:46;20.40;55.90
30148;DHT22;16960;49.404;8.248;2022-10-26T01:58:35;20.40;55.80
30148;DHT22;16960;49.404;8.248;2022-10-26T02:01:17;20.40;55.80
30148;DHT22;16960;49.404;8.248;2022-10-26T02:03:55;20.40;55.70
30148;DHT22;16960;49.404;8.248;2022-10-26T02:06:33;20.40;55.80
30148;DHT22;16960;49.404;8.248;2022-10-26T02:09:10;20.40;55.80
30148;DHT22;16960;49.404;8.248;2022-10-26T02:11:45;20.40;55.70
30148;DHT22;16960;49.404;8.248;2022-10-26T02:14:17;20.40;55.70
30148;DHT22;16960;49.404;8.248;2022-10-26T02:16:52;20.40;55.70
30148;DHT22;16960;49.404;8.248;2022-10-26T02:19:36;20.40;55.70
30148;DHT22;16960;49.404;8.248;2022-10-26T02:22:14;20.40;55.80
30148;DHT22;16960;49.404;8.248;2022-10-26T02:24:42;20.40;55.80
30148;DHT22;16960;49.404;8.248;2022-10-26T02:27:13;20.40;55.80
30148;DHT22;16960;49.404;8.248;2022-10-26T02:29:42;20.40;55.80
30148;DHT22;16960;49.404;8.248;2022-10-26T02:32:11;20.40;55.80
30148;DHT22;16960;49.404;8.248;2022-10-26T02:34:42;20.30;55.80
30148;DHT22;16960;49.404;8.248;2022-10-26T02:37:11;20.30;55.80
30148;DHT22;16960;49.404;8.248;2022-10-26T02:39:42;20.30;55.80
30148;DHT22;16960;49.404;8.248;2022-10-26T02:42:12;20.40;55.80
30148;DHT22;16960;49.404;8.248;2022-10-26T02:44:42;20.40;55.70
30148;DHT22;16960;49.404;8.248;2022-10-26T02:47:13;20.30;55.70
30148;DHT22;16960;49.404;8.248;2022-10-26T02:49:40;20.40;55.70
30148;DHT22;16960;49.404;8.248;2022-10-26T02:52:11;20.40;55.70
30148;DHT22;16960;49.404;8.248;2022-10-26T02:54:47;20.40;55.70
30148;DHT22;16960;49.404;8.248;2022-10-26T02:57:18;20.40;55.80
30148;DHT22;16960;49.404;8.248;2022-10-26T02:59:46;20.30;55.80
30148;DHT22;16960;49.404;8.248;2022-10-26T03:02:17;20.30;55.80
30148;DHT22;16960;49.404;8.248;2022-10-26T03:04:45;20.30;55.70
30148;DHT22;16960;49.404;8.248;2022-10-26T03:07:12;20.40;55.70
30148;DHT22;16960;49.404;8.248;2022-10-26T03:09:45;20.40;55.70
30148;DHT22;16960;49.404;8.248;2022-10-26T03:12:12;20.30;55.70
30148;DHT22;16960;49.404;8.248;2022-10-26T03:14:39;20.30;55.70
30148;DHT22;16960;49.404;8.248;2022-10-26T03:17:06;20.30;55.80
30148;DHT22;16960;49.404;8.248;2022-10-26T03:19:34;20.30;55.70
30148;DHT22;16960;49.404;8.248;2022-10-26T03:22:01;20.30;55.70
30148;DHT22;16960;49.404;8.248;2022-10-26T03:24:28;20.30;55.70
30148;DHT22;16960;49.404;8.248;2022-10-26T03:26:54;20.30;55.70
30148;DHT22;16960;49.404;8.248;2022-10-26T03:29:21;20.30;55.70
30148;DHT22;16960;49.404;8.248;2022-10-26T03:31:48;20.30;55.70
30148;DHT22;16960;49.404;8.248;2022-10-26T03:34:18;20.30;55.70
30148;DHT22;16960;49.404;8.248;2022-10-26T03:36:47;20.30;55.70
30148;DHT22;16960;49.404;8.248;2022-10-26T03:39:14;20.30;55.70
30148;DHT22;16960;49.404;8.248;2022-10-26T03:41:41;20.30;55.70
30148;DHT22;16960;49.404;8.248;2022-10-26T03:44:08;20.30;55.70
30148;DHT22;16960;49.404;8.248;2022-10-26T03:46:35;20.30;55.70
30148;DHT22;16960;49.404;8.248;2022-10-26T03:49:02;20.30;55.70
30148;DHT22;16960;49.404;8.248;2022-10-26T03:51:29;20.30;55.70
30148;DHT22;16960;49.404;8.248;2022-10-26T03:53:57;20.30;55.70
30148;DHT22;16960;49.404;8.248;2022-10-26T03:56:24;20.30;55.70
30148;DHT22;16960;49.404;8.248;2022-10-26T03:58:51;20.30;55.70
30148;DHT22;16960;49.404;8.248;2022-10-26T04:01:18;20.30;55.70
30148;DHT22;16960;49.404;8.248;2022-10-26T04:03:45;20.30;55.70
30148;DHT22;16960;49.404;8.248;2022-10-26T04:06:12;20.30;55.70
30148;DHT22;16960;49.404;8.248;2022-10-26T04:08:39;20.30;55.70
30148;DHT22;16960;49.404;8.248;2022-10-26T04:11:07;20.30;55.70
30148;DHT22;16960;49.404;8.248;2022-10-26T04:13:34;20.30;55.70
30148;DHT22;16960;49.404;8.248;2022-10-26T04:16:01;20.30;55.70
30148;DHT22;16960;49.404;8.248;2022-10-26T04:18:28;20.30;55.70
30148;DHT22;16960;49.404;8.248;2022-10-26T04:20:55;20.30;55.60
30148;DHT22;16960;49.404;8.248;2022-10-26T04:23:22;20.30;55.60
30148;DHT22;16960;49.404;8.248;2022-10-26T04:25:49;20.30;55.60
30148;DHT22;16960;49.404;8.248;2022-10-26T04:28:17;20.30;55.70
30148;DHT22;16960;49.404;8.248;2022-10-26T04:30:44;20.30;55.70
30148;DHT22;16960;49.404;8.248;2022-10-26T04:33:12;20.30;55.70
30148;DHT22;16960;49.404;8.248;2022-10-26T04:35:39;20.30;55.70
30148;DHT22;16960;49.404;8.248;2022-10-26T04:38:08;20.30;55.70
30148;DHT22;16960;49.404;8.248;2022-10-26T04:40:36;20.30;55.80
30148;DHT22;16960;49.404;8.248;2022-10-26T04:43:02;20.20;55.70
30148;DHT22;16960;49.404;8.248;2022-10-26T04:45:31;20.20;55.70
30148;DHT22;16960;49.404;8.248;2022-10-26T04:47:59;20.20;55.70
30148;DHT22;16960;49.404;8.248;2022-10-26T04:50:26;20.20;55.80
30148;DHT22;16960;49.404;8.248;2022-10-26T04:52:53;20.20;55.80
30148;DHT22;16960;49.404;8.248;2022-10-26T04:55:20;20.20;55.80
30148;DHT22;16960;49.404;8.248;2022-10-26T04:57:47;20.20;55.80
30148;DHT22;16960;49.404;8.248;2022-10-26T05:00:14;20.20;55.80
30148;DHT22;16960;49.404;8.248;2022-10-26T05:02:42;20.20;55.70
30148;DHT22;16960;49.404;8.248;2022-10-26T05:05:09;20.20;55.70
30148;DHT22;16960;49.404;8.248;2022-10-26T05:07:36;20.20;55.70
30148;DHT22;16960;49.404;8.248;2022-10-26T05:10:04;20.20;55.70
30148;DHT22;16960;49.404;8.248;2022-10-26T05:12:31;20.20;55.70
30148;DHT22;16960;49.404;8.248;2022-10-26T05:14:58;20.20;55.70
30148;DHT22;16960;49.404;8.248;2022-10-26T05:17:25;20.20;55.70
30148;DHT22;16960;49.404;8.248;2022-10-26T05:19:53;20.20;55.70
30148;DHT22;16960;49.404;8.248;2022-10-26T05:22:22;20.20;55.70
30148;DHT22;16960;49.404;8.248;2022-10-26T05:24:50;20.20;55.70
30148;DHT22;16960;49.404;8.248;2022-10-26T05:27:17;20.20;55.70
30148;DHT22;16960;49.404;8.248;2022-10-26T05:29:44;20.20;55.70
30148;DHT22;16960;49.404;8.248;2022-10-26T05:32:11;20.20;55.70
30148;DHT22;16960;49.404;8.248;2022-10-26T05:34:37;20.30;55.70
30148;DHT22;16960;49.404;8.248;2022-10-26T05:37:06;20.20;55.70
30148;DHT22;16960;49.404;8.248;2022-10-26T05:39:33;20.20;55.70
30148;DHT22;16960;49.404;8.248;2022-10-26T05:41:59;20.20;55.90
30148;DHT22;16960;49.404;8.248;2022-10-26T05:44:26;20.20;55.90
30148;DHT22;16960;49.404;8.248;2022-10-26T05:46:53;20.20;55.90
30148;DHT22;16960;49.404;8.248;2022-10-26T05:49:20;20.20;56.00
30148;DHT22;16960;49.404;8.248;2022-10-26T05:51:47;20.20;56.00
30148;DHT22;16960;49.404;8.248;2022-10-26T05:54:15;20.20;56.00
30148;DHT22;16960;49.404;8.248;2022-10-26T05:56:43;20.30;56.00
30148;DHT22;16960;49.404;8.248;2022-10-26T05:59:11;20.20;56.00
30148;DHT22;16960;49.404;8.248;2022-10-26T06:01:51;20.20;56.30
30148;DHT22;16960;49.404;8.248;2022-10-26T06:04:29;20.30;56.50
30148;DHT22;16960;49.404;8.248;2022-10-26T06:07:01;20.30;56.40
30148;DHT22;16960;49.404;8.248;2022-10-26T06:09:30;20.30;56.30
30148;DHT22;16960;49.404;8.248;2022-10-26T06:11:57;20.20;56.30
30148;DHT22;16960;49.404;8.248;2022-10-26T06:14:26;20.20;56.30
30148;DHT22;16960;49.404;8.248;2022-10-26T06:17:14;20.20;56.30
30148;DHT22;16960;49.404;8.248;2022-10-26T06:19:58;20.20;56.10
30148;DHT22;16960;49.404;8.248;2022-10-26T06:22:40;20.20;56.00
30148;DHT22;16960;49.404;8.248;2022-10-26T06:25:21;20.10;56.00
30148;DHT22;16960;49.404;8.248;2022-10-26T06:27:56;20.10;56.00
30148;DHT22;16960;49.404;8.248;2022-10-26T06:30:27;20.10;55.80
30148;DHT22;16960;49.404;8.248;2022-10-26T06:32:54;20.10;55.90
30148;DHT22;16960;49.404;8.248;2022-10-26T06:35:30;20.10;55.90
30148;DHT22;16960;49.404;8.248;2022-10-26T06:38:04;20.10;56.00
30148;DHT22;16960;49.404;8.248;2022-10-26T06:40:35;20.10;56.00
30148;DHT22;16960;49.404;8.248;2022-10-26T06:43:08;20.10;56.00
30148;DHT22;16960;49.404;8.248;2022-10-26T06:45:37;20.10;56.00
30148;DHT22;16960;49.404;8.248;2022-10-26T06:48:09;20.10;56.00
30148;DHT22;16960;49.404;8.248;2022-10-26T06:50:43;20.10;56.10
30148;DHT22;16960;49.404;8.248;2022-10-26T06:53:18;20.10;56.00
30148;DHT22;16960;49.404;8.248;2022-10-26T06:55:50;20.10;56.10
30148;DHT22;16960;49.404;8.248;2022-10-26T06:58:18;20.10;56.00
30148;DHT22;16960;49.404;8.248;2022-10-26T07:00:47;20.10;56.10
30148;DHT22;16960;49.404;8.248;2022-10-26T07:03:15;20.10;56.10
30148;DHT22;16960;49.404;8.248;2022-10-26T07:05:42;20.10;56.00
30148;DHT22;16960;49.404;8.248;2022-10-26T07:08:10;20.10;56.00
30148;DHT22;16960;49.404;8.248;2022-10-26T07:10:37;20.10;56.00
30148;DHT22;16960;49.404;8.248;2022-10-26T07:13:05;20.00;55.90
30148;DHT22;16960;49.404;8.248;2022-10-26T07:15:33;20.10;56.00
30148;DHT22;16960;49.404;8.248;2022-10-26T07:18:00;20.10;56.00
30148;DHT22;16960;49.404;8.248;2022-10-26T07:20:30;20.10;56.00
30148;DHT22;16960;49.404;8.248;2022-10-26T07:22:58;20.00;55.90
30148;DHT22;16960;49.404;8.248;2022-10-26T07:25:25;20.00;55.90
30148;DHT22;16960;49.404;8.248;2022-10-26T07:27:56;20.00;55.90
30148;DHT22;16960;49.404;8.248;2022-10-26T07:30:25;20.00;55.90
30148;DHT22;16960;49.404;8.248;2022-10-26T07:32:58;20.00;55.90
30148;DHT22;16960;49.404;8.248;2022-10-26T07:35:25;20.00;55.90
30148;DHT22;16960;49.404;8.248;2022-10-26T07:37:55;20.00;55.90
30148;DHT22;16960;49.404;8.248;2022-10-26T07:40:22;20.00;55.90
30148;DHT22;16960;49.404;8.248;2022-10-26T07:42:49;20.00;55.90
30148;DHT22;16960;49.404;8.248;2022-10-26T07:45:17;20.00;55.90
30148;DHT22;16960;49.404;8.248;2022-10-26T07:47:45;20.00;55.90
30148;DHT22;16960;49.404;8.248;2022-10-26T07:50:12;20.00;55.80
30148;DHT22;16960;49.404;8.248;2022-10-26T07:52:39;20.00;55.80
30148;DHT22;16960;49.404;8.248;2022-10-26T07:55:07;20.00;55.90
30148;DHT22;16960;49.404;8.248;2022-10-26T07:57:35;20.00;55.90
30148;DHT22;16960;49.404;8.248;2022-10-26T08:00:04;20.00;55.90
30148;DHT22;16960;49.404;8.248;2022-10-26T08:02:31;20.00;55.90
30148;DHT22;16960;49.404;8.248;2022-10-26T08:04:59;20.00;55.90
30148;DHT22;16960;49.404;8.248;2022-10-26T08:07:26;20.00;55.90
30148;DHT22;16960;49.404;8.248;2022-10-26T08:09:54;20.00;55.90
30148;DHT22;16960;49.404;8.248;2022-10-26T08:12:20;20.00;55.90
30148;DHT22;16960;49.404;8.248;2022-10-26T08:14:47;20.00;55.90
30148;DHT22;16960;49.404;8.248;2022-10-26T08:17:14;20.00;55.90
30148;DHT22;16960;49.404;8.248;2022-10-26T08:19:41;20.00;55.90
30148;DHT22;16960;49.404;8.248;2022-10-26T08:22:09;20.00;55.90
30148;DHT22;16960;49.404;8.248;2022-10-26T08:24:36;20.10;56.00
30148;DHT22;16960;49.404;8.248;2022-10-26T08:27:03;20.00;55.90
30148;DHT22;16960;49.404;8.248;2022-10-26T08:29:30;20.10;56.00
30148;DHT22;16960;49.404;8.248;2022-10-26T08:31:57;20.10;56.00
30148;DHT22;16960;49.404;8.248;2022-10-26T08:34:24;20.10;56.00
30148;DHT22;16960;49.404;8.248;2022-10-26T08:36:51;20.10;56.00
30148;DHT22;16960;49.404;8.248;2022-10-26T08:39:19;20.10;56.10
30148;DHT22;16960;49.404;8.248;2022-10-26T08:41:48;20.10;56.20
30148;DHT22;16960;49.404;8.248;2022-10-26T08:44:23;20.10;56.30
30148;DHT22;16960;49.404;8.248;2022-10-26T08:46:54;20.10;56.40
30148;DHT22;16960;49.404;8.248;2022-10-26T08:49:25;20.10;56.50
30148;DHT22;16960;49.404;8.248;2022-10-26T08:51:55;20.10;56.60
30148;DHT22;16960;49.404;8.248;2022-10-26T08:54:32;20.10;56.70
30148;DHT22;16960;49.404;8.248;2022-10-26T08:57:03;20.10;56.70
30148;DHT22;16960;49.404;8.248;2022-10-26T08:59:34;20.10;56.60
30148;DHT22;16960;49.404;8.248;2022-10-26T09:02:07;20.10;56.60
30148;DHT22;16960;49.404;8.248;2022-10-26T09:04:36;20.10;56.70
30148;DHT22;16960;49.404;8.248;2022-10-26T09:07:07;20.10;56.60
30148;DHT22;16960;49.404;8.248;2022-10-26T09:09:46;20.20;56.60
30148;DHT22;16960;49.404;8.248;2022-10-26T09:12:18;20.20;56.60
30148;DHT22;16960;49.404;8.248;2022-10-26T09:14:55;20.20;56.60
30148;DHT22;16960;49.404;8.248;2022-10-26T09:17:36;20.20;56.70
30148;DHT22;16960;49.404;8.248;2022-10-26T09:20:17;20.20;56.90
30148;DHT22;16960;49.404;8.248;2022-10-26T09:22:56;20.20;57.00
30148;DHT22;16960;49.404;8.248;2022-10-26T09:25:33;20.20;57.00
30148;DHT22;16960;49.404;8.248;2022-10-26T09:28:03;20.20;57.00
30148;DHT22;16960;49.404;8.248;2022-10-26T09:30:33;20.20;56.90
30148;DHT22;16960;49.404;8.248;2022-10-26T09:33:04;20.30;57.00
30148;DHT22;16960;49.404;8.248;2022-10-26T09:35:42;20.30;57.00
30148;DHT22;16960;49.404;8.248;2022-10-26T09:38:13;20.30;56.90
30148;DHT22;16960;49.404;8.248;2022-10-26T09:40:54;20.30;56.90
30148;DHT22;16960;49.404;8.248;2022-10-26T09:43:25;20.30;56.90
30148;DHT22;16960;49.404;8.248;2022-10-26T09:45:53;20.30;56.90
30148;DHT22;16960;49.404;8.248;2022-10-26T09:48:26;20.40;56.90
30148;DHT22;16960;49.404;8.248;2022-10-26T09:50:55;20.40;56.80
30148;DHT22;16960;49.404;8.248;2022-10-26T09:53:24;20.40;56.60
30148;DHT22;16960;49.404;8.248;2022-10-26T09:55:59;20.50;56.70
30148;DHT22;16960;49.404;8.248;2022-10-26T09:58:28;20.50;56.60
30148;DHT22;16960;49.404;8.248;2022-10-26T10:00:56;20.50;56.60
30148;DHT22;16960;49.404;8.248;2022-10-26T10:03:26;20.60;56.50
30148;DHT22;16960;49.404;8.248;2022-10-26T10:06:13;20.70;56.20
30148;DHT22;16960;49.404;8.248;2022-10-26T10:08:41;20.70;56.00
30148;DHT22;16960;49.404;8.248;2022-10-26T10:11:11;20.80;56.00
30148;DHT22;16960;49.404;8.248;2022-10-26T10:13:40;20.80;56.00
30148;DHT22;16960;49.404;8.248;2022-10-26T10:16:11;20.80;56.10
30148;DHT22;16960;49.404;8.248;2022-10-26T10:18:39;20.80;56.20
30148;DHT22;16960;49.404;8.248;2022-10-26T10:21:08;20.80;56.20
30148;DHT22;16960;49.404;8.248;2022-10-26T10:23:36;20.80;56.30
30148;DHT22;16960;49.404;8.248;2022-10-26T10:26:13;20.80;56.30
30148;DHT22;16960;49.404;8.248;2022-10-26T10:28:41;20.70;56.40
30148;DHT22;16960;49.404;8.248;2022-10-26T10:31:19;20.70;56.50
30148;DHT22;16960;49.404;8.248;2022-10-26T10:33:46;20.70;56.70
30148;DHT22;16960;49.404;8.248;2022-10-26T10:36:17;20.70;56.90
30148;DHT22;16960;49.404;8.248;2022-10-26T10:38:46;20.70;57.10
30148;DHT22;16960;49.404;8.248;2022-10-26T10:41:18;20.70;57.20
30148;DHT22;16960;49.404;8.248;2022-10-26T10:43:48;20.70;57.90
30148;DHT22;16960;49.404;8.248;2022-10-26T10:46:23;20.70;57.20
30148;DHT22;16960;49.404;8.248;2022-10-26T10:48:54;20.70;57.30
30148;DHT22;16960;49.404;8.248;2022-10-26T10:51:23;20.70;57.20
30148;DHT22;16960;49.404;8.248;2022-10-26T10:53:52;20.80;57.20
30148;DHT22;16960;49.404;8.248;2022-10-26T10:56:34;20.70;58.00
30148;DHT22;16960;49.404;8.248;2022-10-26T10:59:36;20.70;57.40
30148;DHT22;16960;49.404;8.248;2022-10-26T11:02:28;20.80;57.30
30148;DHT22;16960;49.404;8.248;2022-10-26T11:05:12;20.80;57.20
30148;DHT22;16960;49.404;8.248;2022-10-26T11:07:52;20.80;57.20
30148;DHT22;16960;49.404;8.248;2022-10-26T11:10:21;20.80;57.10
30148;DHT22;16960;49.404;8.248;2022-10-26T11:12:55;20.80;57.30
30148;DHT22;16960;49.404;8.248;2022-10-26T11:15:26;20.80;57.40
30148;DHT22;16960;49.404;8.248;2022-10-26T11:17:59;20.80;57.50
30148;DHT22;16960;49.404;8.248;2022-10-26T11:20:32;20.80;57.70
30148;DHT22;16960;49.404;8.248;2022-10-26T11:23:04;20.80;57.80
30148;DHT22;16960;49.404;8.248;2022-10-26T11:25:37;20.80;57.80
30148;DHT22;16960;49.404;8.248;2022-10-26T11:28:15;20.80;57.80
30148;DHT22;16960;49.404;8.248;2022-10-26T11:30:46;20.80;57.80
30148;DHT22;16960;49.404;8.248;2022-10-26T11:33:19;20.80;57.70
30148;DHT22;16960;49.404;8.248;2022-10-26T11:35:52;20.80;57.70
30148;DHT22;16960;49.404;8.248;2022-10-26T11:38:25;20.80;57.70
30148;DHT22;16960;49.404;8.248;2022-10-26T11:41:00;20.80;57.70
30148;DHT22;16960;49.404;8.248;2022-10-26T11:43:35;20.80;57.60
30148;DHT22;16960;49.404;8.248;2022-10-26T11:46:08;20.80;57.40
30148;DHT22;16960;49.404;8.248;2022-10-26T11:48:41;20.80;57.40
30148;DHT22;16960;49.404;8.248;2022-10-26T11:51:16;20.90;57.30
30148;DHT22;16960;49.404;8.248;2022-10-26T11:53:46;20.90;57.30
30148;DHT22;16960;49.404;8.248;2022-10-26T11:56:20;20.90;57.30
30148;DHT22;16960;49.404;8.248;2022-10-26T11:58:52;20.90;57.40
30148;DHT22;16960;49.404;8.248;2022-10-26T12:01:20;20.90;57.20
30148;DHT22;16960;49.404;8.248;2022-10-26T12:03:50;20.90;57.00
30148;DHT22;16960;49.404;8.248;2022-10-26T12:06:21;21.00;56.90
30148;DHT22;16960;49.404;8.248;2022-10-26T12:08:54;21.10;56.70
30148;DHT22;16960;49.404;8.248;2022-10-26T12:11:34;21.20;56.50
30148;DHT22;16960;49.404;8.248;2022-10-26T12:14:10;21.20;56.30
30148;DHT22;16960;49.404;8.248;2022-10-26T12:16:46;21.30;56.20
30148;DHT22;16960;49.404;8.248;2022-10-26T12:19:19;21.40;56.10
30148;DHT22;16960;49.404;8.248;2022-10-26T12:21:48;21.40;55.90
30148;DHT22;16960;49.404;8.248;2022-10-26T12:24:27;21.50;55.90
30148;DHT22;16960;49.404;8.248;2022-10-26T12:26:56;21.50;55.80
30148;DHT22;16960;49.404;8.248;2022-10-26T12:29:44;21.60;56.00
30148;DHT22;16960;49.404;8.248;2022-10-26T12:32:49;21.70;56.00
30148;DHT22;16960;49.404;8.248;2022-10-26T12:35:31;21.70;55.70
30148;DHT22;16960;49.404;8.248;2022-10-26T12:37:59;21.80;55.60
30148;DHT22;16960;49.404;8.248;2022-10-26T12:40:39;21.80;55.50
30148;DHT22;16960;49.404;8.248;2022-10-26T12:43:32;21.90;55.40
30148;DHT22;16960;49.404;8.248;2022-10-26T12:58:31;22.20;54.80
30148;DHT22;16960;49.404;8.248;2022-10-26T13:01:34;22.20;54.70
30148;DHT22;16960;49.404;8.248;2022-10-26T13:04:14;22.30;54.70
30148;DHT22;16960;49.404;8.248;2022-10-26T13:06:52;22.40;54.50
30148;DHT22;16960;49.404;8.248;2022-10-26T13:09:28;22.40;54.50
30148;DHT22;16960;49.404;8.248;2022-10-26T13:12:00;22.40;54.40
30148;DHT22;16960;49.404;8.248;2022-10-26T13:14:30;22.40;54.20
30148;DHT22;16960;49.404;8.248;2022-10-26T13:17:00;22.40;54.10
30148;DHT22;16960;49.404;8.248;2022-10-26T13:19:31;22.40;54.00
30148;DHT22;16960;49.404;8.248;2022-10-26T13:21:59;22.50;54.20
30148;DHT22;16960;49.404;8.248;2022-10-26T13:24:30;22.60;54.10
30148;DHT22;16960;49.404;8.248;2022-10-26T13:30:19;22.70;54.00
30148;DHT22;16960;49.404;8.248;2022-10-26T13:32:51;22.70;54.10
30148;DHT22;16960;49.404;8.248;2022-10-26T13:35:20;22.70;54.00
30148;DHT22;16960;49.404;8.248;2022-10-26T13:37:51;22.80;53.80
30148;DHT22;16960;49.404;8.248;2022-10-26T13:40:22;22.80;53.90
30148;DHT22;16960;49.404;8.248;2022-10-26T13:42:53;22.90;53.90
30148;DHT22;16960;49.404;8.248;2022-10-26T13:45:24;22.90;53.90
30148;DHT22;16960;49.404;8.248;2022-10-26T13:47:57;22.90;53.70
30148;DHT22;16960;49.404;8.248;2022-10-26T13:50:27;22.90;53.70
30148;DHT22;16960;49.404;8.248;2022-10-26T13:52:59;23.00;53.60
30148;DHT22;16960;49.404;8.248;2022-10-26T13:55:31;23.00;53.60
30148;DHT22;16960;49.404;8.248;2022-10-26T13:58:09;23.00;53.50
30148;DHT22;16960;49.404;8.248;2022-10-26T14:00:36;23.10;53.50
30148;DHT22;16960;49.404;8.248;2022-10-26T14:03:13;23.10;53.40
30148;DHT22;16960;49.404;8.248;2022-10-26T14:05:42;23.20;53.40
30148;DHT22;16960;49.404;8.248;2022-10-26T14:08:15;23.20;53.30
30148;DHT22;16960;49.404;8.248;2022-10-26T14:10:47;23.20;53.20
30148;DHT22;16960;49.404;8.248;2022-10-26T14:13:16;23.20;53.10
30148;DHT22;16960;49.404;8.248;2022-10-26T14:15:45;23.30;53.00
30148;DHT22;16960;49.404;8.248;2022-10-26T14:18:17;23.30;53.00
30148;DHT22;16960;49.404;8.248;2022-10-26T14:20:48;23.40;52.90
30148;DHT22;16960;49.404;8.248;2022-10-26T14:23:26;23.30;52.80
30148;DHT22;16960;49.404;8.248;2022-10-26T14:25:55;23.40;52.70
30148;DHT22;16960;49.404;8.248;2022-10-26T14:28:23;23.40;52.70
30148;DHT22;16960;49.404;8.248;2022-10-26T14:30:50;23.40;52.70
30148;DHT22;16960;49.404;8.248;2022-10-26T14:33:18;23.40;52.80
30148;DHT22;16960;49.404;8.248;2022-10-26T14:35:47;23.40;52.70
30148;DHT22;16960;49.404;8.248;2022-10-26T14:38:18;23.50;52.60
30148;DHT22;16960;49.404;8.248;2022-10-26T14:40:45;23.50;52.60
30148;DHT22;16960;49.404;8.248;2022-10-26T14:43:17;23.50;52.60
30148;DHT22;16960;49.404;8.248;2022-10-26T14:45:48;23.50;52.60
30148;DHT22;16960;49.404;8.248;2022-10-26T14:48:20;23.50;52.60
30148;DHT22;16960;49.404;8.248;2022-10-26T14:51:03;23.50;52.60
30148;DHT22;16960;49.404;8.248;2022-10-26T14:53:37;23.50;52.60
30148;DHT22;16960;49.404;8.248;2022-10-26T14:56:17;23.50;53.00
30148;DHT22;16960;49.404;8.248;2022-10-26T14:58:48;23.50;53.00
30148;DHT22;16960;49.404;8.248;2022-10-26T15:01:29;23.60;53.30
30148;DHT22;16960;49.404;8.248;2022-10-26T15:03:58;23.60;53.40
30148;DHT22;16960;49.404;8.248;2022-10-26T15:06:44;23.60;53.60
30148;DHT22;16960;49.404;8.248;2022-10-26T15:09:36;23.60;53.20
30148;DHT22;16960;49.404;8.248;2022-10-26T15:12:04;23.50;53.20
30148;DHT22;16960;49.404;8.248;2022-10-26T15:14:33;23.60;52.80
30148;DHT22;16960;49.404;8.248;2022-10-26T15:17:00;23.60;52.80
30148;DHT22;16960;49.404;8.248;2022-10-26T15:19:28;23.60;52.70
30148;DHT22;16960;49.404;8.248;2022-10-26T15:21:55;23.50;52.90
30148;DHT22;16960;49.404;8.248;2022-10-26T15:24:27;23.50;52.90
30148;DHT22;16960;49.404;8.248;2022-10-26T15:26:55;23.50;52.90
30148;DHT22;16960;49.404;8.248;2022-10-26T15:29:41;23.50;53.00
30148;DHT22;16960;49.404;8.248;2022-10-26T15:32:20;23.50;53.10
30148;DHT22;16960;49.404;8.248;2022-10-26T15:35:12;23.50;53.30
30148;DHT22;16960;49.404;8.248;2022-10-26T15:37:39;23.50;53.30
30148;DHT22;16960;49.404;8.248;2022-10-26T15:40:07;23.50;53.30
30148;DHT22;16960;49.404;8.248;2022-10-26T15:42:35;23.50;53.60
30148;DHT22;16960;49.404;8.248;2022-10-26T15:45:14;23.50;53.60
30148;DHT22;16960;49.404;8.248;2022-10-26T15:47:42;23.50;53.60
30148;DHT22;16960;49.404;8.248;2022-10-26T15:50:12;23.40;53.60
30148;DHT22;16960;49.404;8.248;2022-10-26T15:52:38;23.40;53.60
30148;DHT22;16960;49.404;8.248;2022-10-26T15:55:06;23.40;53.60
30148;DHT22;16960;49.404;8.248;2022-10-26T15:57:33;23.40;53.70
30148;DHT22;16960;49.404;8.248;2022-10-26T16:00:00;23.40;53.80
30148;DHT22;16960;49.404;8.248;2022-10-26T16:02:29;23.40;53.60
30148;DHT22;16960;49.404;8.248;2022-10-26T16:04:56;23.40;53.40
30148;DHT22;16960;49.404;8.248;2022-10-26T16:07:25;23.50;53.40
30148;DHT22;16960;49.404;8.248;2022-10-26T16:09:53;23.40;53.20
30148;DHT22;16960;49.404;8.248;2022-10-26T16:12:20;23.50;53.30
30148;DHT22;16960;49.404;8.248;2022-10-26T16:14:47;23.40;53.20